Country
Station

 

Weather  for  Raleigh/Durham, Raleigh-Durham International Airport  -  United States    United States

  
23 °C (73 °F)
    
 
 

Current METAR for Raleigh/Durham, Raleigh-Durham International Airport is :

KRDU 171051Z 22006KT 8SM FEW110 SCT250 23/22 A2997 RMK AO2 SLP144 T02280217

 

This is a report for Raleigh/Durham, Raleigh-Durham International Airport - United States.
 
The report was made 29 minutes ago, at 10:51 UTC .
The wind was blowing at a speed of 3.1 meters per second (6.9 miles per hour) from southwest (220°).
 
The temperature was 23 °C (73 °F), with a dew-point at 22 °C (72 °F).
The temperature felt like 21 °C (69 °F).
 
The atmospheric pressure was 1015 hPa (29.97 inHg).
The relative humidity was 94.1%.
 
There were a few clouds at a height of 3353 meters (11000 feet) and scattered clouds at a height of 7620 meters (25000 feet).
 
The overall visibility was 12.9 kilometers (8.0 miles).
 

 
 
 
 

Country :   A   B   C   D   E   F   G   H   I   J   K   L   M   N   O   P   Q   R   S   T   U   V   W   Y   Z

 

Site Info  |  Disclaimer  |  Credits  |  Privacy
Contact us  |  Add to favorites
© 2013-2018 METARs - All rights reserved